Ford, KS (67842)

8:37 PM CDT on October 25, 2014 (GMT -0500)
Dodge City Regional | Change Station
CLOSE
Current Station
Airport
Location: Dodge City,
Elevation: 2592 ft
Nearby Weather Stations

Elev 2592 ft 37.76 °N, 99.97 °W | Updated 45 minutes ago

Clear
Clear
73 °F
Feels Like 73 °F
N
12
Wind Variable Wind from SSE

Today
High -- | Low -- °F
--% Chance of Precip.
Yesterday
High -- | Low -- °F
Precip. -- in
7:57 AM 6:48 PM
Waxing Crescent, 5% visible
Pressure 29.92 in
Visibility 10.0 miles
Clouds Clear
Dew Point 48 °F
Humidity 41%
Rainfall 0.00 in
Snow Depth Not available.
UV 0 out of 12
Pollen 3.50 out of 12
Air Quality Not available.
Flu Activity No Activity
METAR KDDC 260052Z AUTO 16010KT 10SM CLR 23/09 A2998 RMK AO2 SLP131 T02280089

More Conditions Fewer Conditions

Pressure 29.92 in
Visibility 10.0 miles
Clouds Clear
Dew Point 48 °F
Humidity 41%
Rainfall 0.00 in
Snow Depth Not available.
UV 0 out of 12
Pollen 3.50 out of 12
Air Quality Not available.
Flu Activity No Activity
METAR KDDC 260052Z AUTO 16010KT 10SM CLR 23/09 A2998 RMK AO2 SLP131 T02280089

More Conditions Fewer Conditions

10-Day Weather Forecast

Almanac

Astronomy

Oct. 25, 2014 Rise Set
Actual Time 7:57 AM CDT 6:48 PM CDT
Civil Twilight 7:30 AM CDT 7:15 PM CDT
Nautical Twilight 6:59 AM CDT 7:45 PM CDT
Astronomical Twilight 6:29 AM CDT 8:16 PM CDT
Moon 9:36 AM CDT (10/25) 8:14 PM CDT (10/25)
Length of Visible Light 11h 45m
Length of Day
10h 51m
Tomorrow will be 2m 12s shorter.
Waxing Crescent, 5% of the Moon is Illuminated
Today
Waxing Crescent
Oct 30
First Quarter
Nov 6
Full
Nov 14
Last Quarter
Nov 22
New

Today's Extremes

State Highs State Lows

Community

WunderPhotos

Upload Photos

1,765,066 photos uploaded!

Nearby

Snow Depth

Station Depth Elevation
No new snow has been reported.

Earthquake Activity

City Distance Mag. Time & Date
Mooreland, Oklahoma 88 miles 2.9 3:21 PM CDT
2014-10-25
Mooreland, Oklahoma 86 miles 2.5 2:43 PM CDT
2014-10-24
Medford, Oklahoma 118 miles 2.6 12:44 PM CDT
2014-10-24
Mooreland, Oklahoma 87 miles 2.5 12:39 PM CDT
2014-10-24
Minimum magnitude displayed is 2.5.

Coastal Water Temperatures

Place Temperature
No Stations Reporting

Nearby Weather Stations